createdAt,value
2017-08-22T00:00:23.227Z,6.03
2017-08-22T00:02:49.536Z,5.90
2017-08-22T00:05:15.832Z,7.83
2017-08-22T00:07:42.125Z,6.40
2017-08-22T00:10:09.180Z,7.60
2017-08-22T00:12:35.468Z,6.20
2017-08-22T00:15:01.992Z,7.20
2017-08-22T00:17:28.281Z,6.63
2017-08-22T00:19:54.582Z,6.53
2017-08-22T00:22:20.877Z,7.03
2017-08-22T00:24:47.199Z,6.73
2017-08-22T00:27:13.483Z,6.20
2017-08-22T00:29:39.773Z,6.10
2017-08-22T00:32:06.073Z,6.63
2017-08-22T00:34:32.384Z,6.43
2017-08-22T00:36:58.696Z,7.80
2017-08-22T00:39:24.967Z,6.63
2017-08-22T00:41:51.264Z,6.80
2017-08-22T00:44:17.556Z,6.53
2017-08-22T00:46:44.054Z,6.50
2017-08-22T00:49:10.444Z,7.50
2017-08-22T00:51:36.776Z,7.57
2017-08-22T00:54:03.089Z,7.00
2017-08-22T00:56:29.364Z,6.97
2017-08-22T00:58:55.664Z,6.57
2017-08-22T01:01:22.012Z,6.90
2017-08-22T01:03:48.375Z,8.23
2017-08-22T01:06:14.790Z,7.30
2017-08-22T01:08:41.172Z,7.27
2017-08-22T01:11:07.500Z,6.73
2017-08-22T01:13:33.795Z,6.33
2017-08-22T01:16:00.089Z,7.37
2017-08-22T01:18:26.400Z,6.63
2017-08-22T01:20:52.695Z,6.50
2017-08-22T01:23:18.971Z,7.30
2017-08-22T01:25:45.277Z,7.90
2017-08-22T01:28:11.572Z,7.93
2017-08-22T01:30:37.839Z,7.80
2017-08-22T01:33:04.161Z,7.40
2017-08-22T01:35:30.446Z,8.00
2017-08-22T01:37:56.747Z,7.43
2017-08-22T01:40:23.108Z,7.93
2017-08-22T01:42:49.388Z,9.07
2017-08-22T01:45:15.692Z,7.87
2017-08-22T01:47:42.096Z,7.20
2017-08-22T01:50:08.408Z,8.87
2017-08-22T01:52:34.694Z,8.57
2017-08-22T01:55:01.008Z,8.40
2017-08-22T01:57:27.307Z,8.83
2017-08-22T01:59:53.589Z,7.73
2017-08-22T02:02:19.935Z,8.97
2017-08-22T02:04:46.224Z,7.80
2017-08-22T02:07:12.532Z,8.13
2017-08-22T02:09:38.832Z,8.97
2017-08-22T02:12:05.128Z,8.67
2017-08-22T02:14:31.443Z,8.80
2017-08-22T02:16:58.215Z,10.83
2017-08-22T02:19:24.535Z,9.87
2017-08-22T02:21:50.856Z,9.73
2017-08-22T02:24:17.140Z,8.70
2017-08-22T02:26:43.421Z,8.60
2017-08-22T02:29:09.743Z,8.20
2017-08-22T02:31:36.039Z,8.73
2017-08-22T02:34:02.327Z,8.10
2017-08-22T02:36:28.652Z,8.13
2017-08-22T02:38:54.954Z,9.60
2017-08-22T02:41:21.264Z,8.87
2017-08-22T02:43:47.532Z,9.73
2017-08-22T02:46:13.853Z,9.30
2017-08-22T02:48:40.178Z,9.70
2017-08-22T02:51:06.464Z,9.20
2017-08-22T02:53:32.785Z,9.50
2017-08-22T02:55:59.147Z,9.23
2017-08-22T02:58:25.449Z,9.03
2017-08-22T03:00:51.775Z,9.10
2017-08-22T03:03:18.055Z,8.77
2017-08-22T03:05:44.392Z,9.40
2017-08-22T03:08:10.675Z,8.53
2017-08-22T03:10:36.972Z,9.40
2017-08-22T03:13:03.272Z,8.50
2017-08-22T03:15:29.528Z,9.53
2017-08-22T03:17:56.004Z,8.93
2017-08-22T03:20:22.293Z,8.73
2017-08-22T03:22:48.584Z,8.10
2017-08-22T03:25:14.904Z,9.27
2017-08-22T03:27:41.220Z,8.43
2017-08-22T03:30:07.540Z,8.20
2017-08-22T03:32:33.840Z,8.03
2017-08-22T03:35:00.160Z,7.87
2017-08-22T03:37:26.680Z,8.33
2017-08-22T03:39:52.956Z,8.23
2017-08-22T03:42:19.263Z,8.87
2017-08-22T03:44:46.185Z,9.30
2017-08-22T03:47:12.455Z,8.60
2017-08-22T03:49:38.731Z,8.80
2017-08-22T03:52:05.035Z,8.80
2017-08-22T03:54:31.351Z,8.73
2017-08-22T03:56:57.656Z,9.50
2017-08-22T03:59:23.951Z,9.17
2017-08-22T04:01:50.247Z,8.27
2017-08-22T04:04:16.544Z,9.20
2017-08-22T04:06:42.864Z,7.90
2017-08-22T04:09:09.155Z,8.10
2017-08-22T04:11:35.424Z,8.13
2017-08-22T04:14:01.744Z,8.80
2017-08-22T04:16:28.035Z,8.20
2017-08-22T04:18:54.336Z,8.73
2017-08-22T04:21:20.644Z,9.50
2017-08-22T04:23:46.936Z,8.30
2017-08-22T04:26:13.269Z,8.80
2017-08-22T04:28:39.532Z,9.47
2017-08-22T04:31:05.870Z,8.43
2017-08-22T04:33:32.377Z,9.17
2017-08-22T04:35:58.660Z,8.90
2017-08-22T04:38:24.980Z,8.70
2017-08-22T04:40:51.296Z,8.73
2017-08-22T04:43:17.613Z,9.57
2017-08-22T04:45:44.003Z,8.40
2017-08-22T04:48:10.357Z,9.17
2017-08-22T04:50:36.656Z,8.90
2017-08-22T04:53:02.987Z,7.83
2017-08-22T04:55:29.256Z,7.20
2017-08-22T04:57:55.543Z,7.53
2017-08-22T05:00:22.008Z,8.33
2017-08-22T05:02:48.344Z,8.80
2017-08-22T05:05:14.677Z,7.63
2017-08-22T05:07:40.973Z,7.30
2017-08-22T05:10:07.328Z,6.53
2017-08-22T05:12:33.639Z,6.77
2017-08-22T05:15:00.071Z,6.60
2017-08-22T05:17:27.132Z,6.27
2017-08-22T05:19:53.396Z,5.80
2017-08-22T05:22:19.744Z,5.87
2017-08-22T05:24:46.084Z,5.60
2017-08-22T05:27:12.407Z,4.80
2017-08-22T05:29:38.728Z,4.97
2017-08-22T05:32:05.016Z,4.77
2017-08-22T05:34:31.334Z,5.20
2017-08-22T05:36:57.728Z,5.07
2017-08-22T05:39:24.033Z,4.53
2017-08-22T05:41:50.336Z,4.40
2017-08-22T05:44:16.696Z,5.40
2017-08-22T05:46:43.020Z,5.10
2017-08-22T05:49:09.373Z,4.50
2017-08-22T05:51:35.685Z,5.20
2017-08-22T05:54:01.988Z,4.40
2017-08-22T05:56:28.336Z,3.97
2017-08-22T05:58:54.640Z,4.20
2017-08-22T06:01:20.931Z,4.17
2017-08-22T06:03:47.234Z,4.00
2017-08-22T06:06:13.565Z,5.00
2017-08-22T06:08:39.859Z,4.50
2017-08-22T06:11:06.371Z,4.20
2017-08-22T06:13:32.745Z,3.90
2017-08-22T06:15:59.068Z,3.97
2017-08-22T06:18:25.688Z,4.10
2017-08-22T06:20:51.997Z,4.13
2017-08-22T06:23:18.300Z,3.63
2017-08-22T06:25:44.594Z,3.73
2017-08-22T06:28:10.884Z,4.07
2017-08-22T06:30:37.200Z,4.00
2017-08-22T06:33:03.511Z,4.00
2017-08-22T06:35:29.845Z,3.73
2017-08-22T06:37:58.180Z,3.90
2017-08-22T06:40:25.245Z,3.33
2017-08-22T06:42:51.557Z,3.40
2017-08-22T06:45:18.627Z,3.50
2017-08-22T06:47:44.895Z,3.70
2017-08-22T06:50:11.202Z,3.30
2017-08-22T06:52:37.487Z,4.00
2017-08-22T06:55:03.803Z,3.47
2017-08-22T06:57:30.114Z,3.87
2017-08-22T06:59:56.451Z,4.23
2017-08-22T07:02:22.762Z,3.80
2017-08-22T07:04:49.055Z,3.63
2017-08-22T07:07:15.372Z,3.97
2017-08-22T07:09:41.668Z,4.70
2017-08-22T07:12:07.988Z,3.73
2017-08-22T07:14:34.256Z,3.67
2017-08-22T07:17:00.575Z,4.00
2017-08-22T07:19:26.879Z,3.90
2017-08-22T07:21:53.171Z,3.60
2017-08-22T07:24:19.491Z,3.40
2017-08-22T07:26:45.771Z,3.47
2017-08-22T07:29:12.075Z,3.20
2017-08-22T07:31:38.379Z,4.00
2017-08-22T07:34:04.672Z,3.47
2017-08-22T07:36:31.023Z,3.83
2017-08-22T07:38:57.368Z,3.43
2017-08-22T07:41:23.649Z,3.00
2017-08-22T07:43:49.979Z,3.20
2017-08-22T07:46:16.319Z,3.30
2017-08-22T07:48:42.657Z,3.07
2017-08-22T07:51:08.965Z,2.93
2017-08-22T07:53:35.235Z,2.80
2017-08-22T07:56:01.598Z,2.57
2017-08-22T07:58:27.979Z,2.30
2017-08-22T08:00:54.356Z,2.80
2017-08-22T08:03:20.733Z,2.47
2017-08-22T08:05:47.049Z,2.17
2017-08-22T08:08:13.320Z,2.50
2017-08-22T08:10:39.657Z,2.22
2017-08-22T08:13:05.971Z,2.90
2017-08-22T08:15:32.304Z,2.25
2017-08-22T08:17:59.362Z,2.53
2017-08-22T08:20:25.661Z,2.08
2017-08-22T08:22:52.081Z,2.00
2017-08-22T08:25:18.429Z,1.95
2017-08-22T08:27:44.724Z,2.37
2017-08-22T08:30:11.080Z,2.33
2017-08-22T08:32:37.411Z,2.10
2017-08-22T08:35:03.695Z,2.22
2017-08-22T08:37:30.024Z,1.80
2017-08-22T08:39:56.472Z,2.20
2017-08-22T08:42:22.775Z,1.77
2017-08-22T08:44:49.093Z,2.53
2017-08-22T08:47:15.392Z,2.10
2017-08-22T08:49:41.723Z,2.42
2017-08-22T08:52:08.087Z,2.05
2017-08-22T08:54:34.384Z,2.25
2017-08-22T08:57:00.750Z,2.15
2017-08-22T08:59:27.047Z,2.37
2017-08-22T09:01:53.320Z,2.12
2017-08-22T09:04:19.632Z,2.25
2017-08-22T09:06:45.949Z,2.37
2017-08-22T09:09:12.283Z,2.10
2017-08-22T09:11:38.618Z,2.00
2017-08-22T09:14:04.944Z,2.08
2017-08-22T09:16:31.316Z,2.08
2017-08-22T09:18:57.576Z,1.85
2017-08-22T09:21:23.904Z,1.65
2017-08-22T09:23:50.219Z,2.00
2017-08-22T09:26:16.547Z,2.15
2017-08-22T09:28:42.900Z,2.15
2017-08-22T09:31:09.203Z,1.90
2017-08-22T09:33:35.497Z,2.30
2017-08-22T09:36:01.783Z,1.80
2017-08-22T09:38:28.128Z,2.20
2017-08-22T09:40:54.831Z,2.33
2017-08-22T09:43:21.116Z,2.20
2017-08-22T09:45:47.434Z,2.00
2017-08-22T09:48:13.737Z,2.10
2017-08-22T09:50:40.036Z,2.00
2017-08-22T09:53:06.356Z,2.10
2017-08-22T09:55:32.648Z,2.10
2017-08-22T09:57:58.944Z,2.30
2017-08-22T10:00:25.260Z,2.73
2017-08-22T10:02:51.527Z,3.13
2017-08-22T10:05:17.836Z,3.80
2017-08-22T10:07:44.108Z,2.70
2017-08-22T10:10:10.428Z,2.90
2017-08-22T10:12:36.744Z,4.07
2017-08-22T10:15:36.804Z,3.00
2017-08-22T10:18:03.109Z,3.33
2017-08-22T10:20:29.380Z,3.23
2017-08-22T10:22:55.672Z,3.30
2017-08-22T10:25:21.975Z,3.00
2017-08-22T10:27:48.355Z,3.90
2017-08-22T10:30:14.663Z,3.43
2017-08-22T10:32:41.000Z,3.40
2017-08-22T10:35:07.304Z,3.90
2017-08-22T10:37:33.589Z,3.17
2017-08-22T10:39:59.912Z,3.60
2017-08-22T10:42:26.188Z,3.20
2017-08-22T10:44:52.572Z,3.40
2017-08-22T10:47:18.888Z,3.67
2017-08-22T10:49:45.199Z,3.27
2017-08-22T10:52:11.643Z,3.10
2017-08-22T10:54:37.979Z,2.83
2017-08-22T10:57:04.272Z,3.13
2017-08-22T10:59:30.580Z,3.37
2017-08-22T11:01:56.900Z,3.87
2017-08-22T11:04:23.196Z,3.77
2017-08-22T11:06:49.532Z,4.00
2017-08-22T11:09:15.819Z,3.43
2017-08-22T11:11:42.148Z,2.87
2017-08-22T11:14:08.537Z,2.83
2017-08-22T11:16:34.837Z,2.80
2017-08-22T11:19:01.124Z,2.57
2017-08-22T11:21:27.396Z,3.10
2017-08-22T11:23:53.664Z,3.60
2017-08-22T11:26:20.036Z,3.03
2017-08-22T11:28:46.392Z,3.43
2017-08-22T11:31:12.787Z,2.83
2017-08-22T11:33:39.095Z,3.40
2017-08-22T11:36:05.405Z,3.43
2017-08-22T11:38:31.746Z,2.87
2017-08-22T11:40:58.055Z,3.17
2017-08-22T11:43:24.427Z,3.10
2017-08-22T11:45:50.708Z,3.57
2017-08-22T11:48:17.046Z,2.90
2017-08-22T11:50:43.330Z,3.30
2017-08-22T11:53:09.637Z,3.70
2017-08-22T11:55:35.947Z,3.20
2017-08-22T11:58:02.340Z,3.37
2017-08-22T12:00:28.660Z,3.10
2017-08-22T12:02:54.948Z,2.73
2017-08-22T12:05:21.404Z,3.40
2017-08-22T12:07:47.737Z,3.13
2017-08-22T12:10:14.060Z,3.03
2017-08-22T12:12:40.377Z,3.27
2017-08-22T12:15:06.948Z,2.73
2017-08-22T12:17:33.244Z,3.37
2017-08-22T12:19:59.540Z,2.77
2017-08-22T12:22:25.863Z,3.33
2017-08-22T12:24:52.199Z,2.73
2017-08-22T12:27:18.519Z,3.53
2017-08-22T12:29:44.839Z,3.17
2017-08-22T12:32:11.141Z,3.70
2017-08-22T12:34:37.424Z,2.93
2017-08-22T12:37:03.752Z,2.90
2017-08-22T12:39:30.049Z,2.73
2017-08-22T12:41:56.347Z,2.87
2017-08-22T12:44:22.847Z,2.83
2017-08-22T12:46:49.205Z,3.10
2017-08-22T12:49:15.504Z,3.60
2017-08-22T12:51:41.835Z,3.27
2017-08-22T12:54:08.128Z,3.30
2017-08-22T12:56:34.475Z,3.00
2017-08-22T12:59:00.815Z,3.27
2017-08-22T13:01:27.137Z,3.00
2017-08-22T13:03:53.440Z,3.10
2017-08-22T13:06:19.712Z,2.87
2017-08-22T13:08:46.028Z,3.60
2017-08-22T13:11:12.296Z,2.83
2017-08-22T13:13:38.607Z,3.50
2017-08-22T13:16:04.903Z,3.20
2017-08-22T13:18:31.207Z,2.90
2017-08-22T13:20:57.492Z,3.33
2017-08-22T13:23:23.784Z,3.13
2017-08-22T13:25:50.063Z,3.67
2017-08-22T13:28:16.364Z,3.53
2017-08-22T13:30:42.673Z,2.80
2017-08-22T13:33:08.979Z,3.20
2017-08-22T13:35:35.303Z,3.43
2017-08-22T13:38:01.612Z,3.00
2017-08-22T13:40:27.891Z,3.40
2017-08-22T13:42:54.203Z,3.53
2017-08-22T13:45:20.511Z,3.00
2017-08-22T13:47:46.823Z,2.90
2017-08-22T13:50:13.863Z,3.80
2017-08-22T13:52:40.172Z,3.73
2017-08-22T13:55:06.492Z,2.70
2017-08-22T13:57:32.768Z,3.17
2017-08-22T13:59:59.072Z,3.90
2017-08-22T14:02:25.348Z,2.77
2017-08-22T14:04:51.648Z,3.33
2017-08-22T14:07:17.954Z,3.70
2017-08-22T14:09:45.015Z,3.30
2017-08-22T14:12:11.350Z,3.00
2017-08-22T14:14:37.617Z,2.83
2017-08-22T14:17:03.943Z,3.20
2017-08-22T14:19:30.240Z,2.60
2017-08-22T14:21:56.696Z,3.77
2017-08-22T14:24:22.979Z,2.90
2017-08-22T14:26:49.270Z,3.20
2017-08-22T14:29:15.580Z,2.57
2017-08-22T14:31:41.896Z,2.90
2017-08-22T14:34:08.191Z,2.60
2017-08-22T14:36:34.467Z,2.67
2017-08-22T14:39:00.799Z,3.27
2017-08-22T14:41:27.080Z,3.67
2017-08-22T14:43:53.353Z,3.20
2017-08-22T14:46:19.675Z,2.80
2017-08-22T14:48:45.952Z,3.07
2017-08-22T14:51:12.305Z,3.03
2017-08-22T14:53:38.608Z,2.90
2017-08-22T14:56:04.924Z,3.27
2017-08-22T14:58:31.268Z,3.03
2017-08-22T15:00:57.567Z,3.30
2017-08-22T15:03:23.922Z,2.97
2017-08-22T15:05:50.422Z,2.40
2017-08-22T15:08:16.707Z,2.50
2017-08-22T15:10:43.028Z,2.60
2017-08-22T15:13:09.340Z,2.70
2017-08-22T15:15:35.664Z,2.93
2017-08-22T15:18:02.005Z,2.57
2017-08-22T15:20:28.386Z,2.83
2017-08-22T15:22:54.685Z,4.00
2017-08-22T15:25:21.009Z,3.03
2017-08-22T15:27:47.561Z,3.87
2017-08-22T15:30:13.912Z,3.10
2017-08-22T15:32:40.280Z,2.97
2017-08-22T15:35:06.571Z,3.03
2017-08-22T15:37:32.929Z,2.83
2017-08-22T15:39:59.213Z,3.13
2017-08-22T15:42:25.536Z,2.93
2017-08-22T15:44:51.861Z,3.37
2017-08-22T15:47:18.176Z,3.50
2017-08-22T15:49:44.509Z,3.17
2017-08-22T15:52:10.805Z,2.93
2017-08-22T15:54:37.137Z,3.53
2017-08-22T15:57:03.407Z,2.70
2017-08-22T15:59:29.876Z,2.53
2017-08-22T16:01:56.185Z,3.17
2017-08-22T16:04:22.642Z,2.73
2017-08-22T16:06:49.048Z,3.40
2017-08-22T16:09:15.378Z,2.77
2017-08-22T16:11:41.721Z,3.13
2017-08-22T16:14:08.004Z,3.20
2017-08-22T16:16:34.357Z,3.77
2017-08-22T16:19:00.726Z,2.80
2017-08-22T16:21:27.061Z,2.73
2017-08-22T16:23:53.372Z,3.00
2017-08-22T16:26:19.640Z,3.03
2017-08-22T16:28:45.970Z,2.80
2017-08-22T16:31:12.472Z,3.10
2017-08-22T16:33:38.780Z,2.80
2017-08-22T16:36:05.103Z,3.30
2017-08-22T16:38:31.404Z,3.33
2017-08-22T16:40:57.732Z,2.60
2017-08-22T16:43:24.104Z,2.67
2017-08-22T16:45:50.442Z,2.67
2017-08-22T16:48:16.774Z,3.27
2017-08-22T16:50:43.087Z,2.90
2017-08-22T16:53:09.445Z,3.40
2017-08-22T16:55:35.788Z,3.30
2017-08-22T16:58:02.156Z,3.43
2017-08-22T17:00:28.682Z,2.80
2017-08-22T17:02:54.982Z,3.57
2017-08-22T17:05:21.288Z,3.03
2017-08-22T17:07:47.624Z,2.30
2017-08-22T17:10:13.987Z,2.87
2017-08-22T17:12:40.309Z,3.03
2017-08-22T17:15:06.586Z,2.50
2017-08-22T17:17:32.901Z,3.20
2017-08-22T17:19:59.216Z,3.30
2017-08-22T17:22:25.584Z,3.10
2017-08-22T17:24:51.932Z,2.47
2017-08-22T17:27:18.330Z,3.00
2017-08-22T17:29:44.681Z,2.80
2017-08-22T17:32:10.961Z,2.60
2017-08-22T17:34:37.277Z,3.10
2017-08-22T17:37:03.632Z,3.77
2017-08-22T17:39:29.956Z,2.97
2017-08-22T17:41:56.276Z,3.17
2017-08-22T17:44:22.656Z,3.30
2017-08-22T17:46:49.033Z,3.00
2017-08-22T17:49:15.328Z,2.97
2017-08-22T17:51:41.636Z,2.67
2017-08-22T17:54:07.940Z,3.10
2017-08-22T17:56:34.319Z,2.60
2017-08-22T17:59:00.645Z,3.20
2017-08-22T18:01:26.947Z,3.13
2017-08-22T18:03:53.296Z,3.50
2017-08-22T18:06:19.608Z,2.93
2017-08-22T18:08:45.913Z,3.37
2017-08-22T18:11:12.229Z,2.83
2017-08-22T18:13:38.503Z,4.17
2017-08-22T18:16:04.836Z,3.63
2017-08-22T18:18:31.184Z,3.13
2017-08-22T18:20:57.564Z,3.30
2017-08-22T18:23:23.865Z,3.57
2017-08-22T18:25:50.161Z,3.37
2017-08-22T18:28:16.489Z,3.23
2017-08-22T18:30:42.824Z,4.23
2017-08-22T18:33:09.145Z,4.10
2017-08-22T18:35:35.466Z,4.00
2017-08-22T18:38:01.824Z,4.10
2017-08-22T18:40:28.231Z,4.20
2017-08-22T18:42:54.545Z,3.63
2017-08-22T18:45:20.856Z,4.50
2017-08-22T18:47:47.169Z,2.90
2017-08-22T18:50:13.503Z,3.07
2017-08-22T18:52:39.816Z,3.53
2017-08-22T18:55:06.170Z,3.00
2017-08-22T18:57:32.532Z,3.33
2017-08-22T18:59:58.989Z,4.10
2017-08-22T19:02:25.305Z,4.10
2017-08-22T19:04:51.601Z,4.57
2017-08-22T19:07:17.951Z,3.63
2017-08-22T19:09:44.284Z,3.80
2017-08-22T19:12:10.659Z,4.60
2017-08-22T19:14:36.953Z,3.87
2017-08-22T19:17:03.245Z,4.73
2017-08-22T19:19:29.594Z,3.97
2017-08-22T19:21:56.023Z,4.83
2017-08-22T19:24:22.311Z,4.93
2017-08-22T19:26:48.616Z,4.30
2017-08-22T19:29:15.002Z,5.20
2017-08-22T19:31:41.321Z,4.90
2017-08-22T19:34:07.660Z,4.63
2017-08-22T19:36:34.042Z,5.13
2017-08-22T19:39:05.532Z,4.63
2017-08-22T19:41:31.892Z,5.03
2017-08-22T19:43:58.244Z,4.27
2017-08-22T19:46:24.589Z,4.53
2017-08-22T19:48:50.931Z,4.67
2017-08-22T19:51:17.236Z,4.70
2017-08-22T19:53:43.733Z,4.53
2017-08-22T19:56:10.115Z,5.20
2017-08-22T19:58:36.454Z,5.00
2017-08-22T20:01:02.757Z,5.17
2017-08-22T20:03:29.100Z,5.20
2017-08-22T20:05:55.648Z,5.10
2017-08-22T20:08:22.008Z,5.37
2017-08-22T20:10:48.499Z,4.20
2017-08-22T20:13:14.823Z,4.70
2017-08-22T20:15:41.168Z,5.00
2017-08-22T20:18:07.484Z,4.80
2017-08-22T20:20:33.824Z,4.90
2017-08-22T20:23:00.164Z,5.20
2017-08-22T20:25:26.472Z,5.67
2017-08-22T20:27:53.604Z,5.50
2017-08-22T20:30:19.897Z,4.73
2017-08-22T20:32:46.226Z,4.60
2017-08-22T20:35:12.533Z,4.60
2017-08-22T20:37:38.867Z,5.57
2017-08-22T20:40:05.226Z,4.77
2017-08-22T20:42:31.535Z,4.20
2017-08-22T20:44:58.007Z,4.60
2017-08-22T20:47:24.356Z,4.27
2017-08-22T20:49:50.675Z,5.03
2017-08-22T20:52:17.023Z,4.30
2017-08-22T20:54:43.335Z,4.93
2017-08-22T20:57:09.656Z,4.37
2017-08-22T20:59:36.736Z,4.70
2017-08-22T21:02:03.058Z,4.33
2017-08-22T21:04:29.416Z,4.90
2017-08-22T21:06:55.732Z,4.57
2017-08-22T21:09:22.097Z,4.83
2017-08-22T21:11:48.399Z,5.30
2017-08-22T21:14:14.837Z,4.37
2017-08-22T21:16:41.180Z,4.80
2017-08-22T21:19:07.520Z,5.13
2017-08-22T21:21:33.884Z,5.40
2017-08-22T21:24:00.188Z,4.97
2017-08-22T21:26:26.485Z,5.57
2017-08-22T21:28:52.785Z,5.73
2017-08-22T21:31:19.152Z,5.77
2017-08-22T21:33:45.488Z,5.70
2017-08-22T21:36:11.816Z,5.93
2017-08-22T21:38:38.183Z,5.20
2017-08-22T21:41:04.460Z,6.37
2017-08-22T21:43:30.800Z,5.70
2017-08-22T21:45:57.137Z,6.10
2017-08-22T21:48:23.468Z,6.27
2017-08-22T21:50:49.820Z,6.60
2017-08-22T21:53:16.152Z,6.40
2017-08-22T21:55:42.660Z,6.40
2017-08-22T21:58:08.975Z,5.50
2017-08-22T22:00:35.313Z,5.70
2017-08-22T22:03:01.612Z,6.00
2017-08-22T22:05:27.936Z,5.70
2017-08-22T22:07:54.206Z,6.20
2017-08-22T22:10:20.559Z,5.90
2017-08-22T22:12:46.904Z,5.33
2017-08-22T22:15:13.209Z,6.23
2017-08-22T22:17:39.528Z,5.60
2017-08-22T22:20:05.828Z,5.80
2017-08-22T22:22:32.119Z,6.00
2017-08-22T22:24:58.452Z,5.93
2017-08-22T22:27:24.791Z,5.93
2017-08-22T22:29:51.147Z,5.70
2017-08-22T22:32:17.437Z,6.10
2017-08-22T22:34:43.739Z,6.30
2017-08-22T22:37:10.036Z,6.13
2017-08-22T22:39:36.363Z,5.67
2017-08-22T22:42:02.652Z,6.50
2017-08-22T22:44:28.964Z,5.13
2017-08-22T22:46:55.268Z,5.43
2017-08-22T22:49:21.628Z,7.03
2017-08-22T22:51:47.929Z,6.30
2017-08-22T22:54:14.269Z,5.30
2017-08-22T22:56:40.597Z,6.00
2017-08-22T22:59:06.895Z,6.20
2017-08-22T23:01:33.203Z,5.00
2017-08-22T23:03:59.516Z,5.80
2017-08-22T23:06:25.807Z,6.30
2017-08-22T23:08:52.090Z,5.90
2017-08-22T23:11:18.417Z,6.17
2017-08-22T23:13:44.671Z,6.03
2017-08-22T23:16:11.001Z,6.20
2017-08-22T23:18:37.360Z,6.33
2017-08-22T23:21:03.657Z,6.17
2017-08-22T23:23:30.228Z,6.00
2017-08-22T23:25:56.573Z,5.70
2017-08-22T23:28:22.886Z,5.63
2017-08-22T23:30:49.176Z,6.27
2017-08-22T23:33:15.471Z,5.40
2017-08-22T23:35:41.796Z,5.70
2017-08-22T23:38:08.215Z,5.53
2017-08-22T23:40:34.568Z,6.17
2017-08-22T23:43:00.881Z,6.00
2017-08-22T23:45:27.251Z,6.07
2017-08-22T23:47:53.559Z,6.00
2017-08-22T23:50:19.832Z,5.63
2017-08-22T23:52:46.163Z,6.50
2017-08-22T23:55:12.468Z,5.40
2017-08-22T23:57:38.784Z,6.00
